createdAt,value
2022-11-12T00:01:09.953Z,23.13
2022-11-12T00:07:30.500Z,23.40
2022-11-12T00:13:51.369Z,23.77
2022-11-12T00:20:13.089Z,23.17
2022-11-12T00:26:33.837Z,25.23
2022-11-12T00:32:54.886Z,23.23
2022-11-12T00:39:15.559Z,24.05
2022-11-12T00:45:36.312Z,24.40
2022-11-12T00:51:57.230Z,23.88
2022-11-12T00:58:18.273Z,23.25
2022-11-12T01:04:39.278Z,23.63
2022-11-12T01:11:10.536Z,22.00
2022-11-12T01:17:31.813Z,21.25
2022-11-12T01:23:52.574Z,20.08
2022-11-12T01:30:13.716Z,19.55
2022-11-12T01:36:37.656Z,18.98
2022-11-12T01:42:58.557Z,19.90
2022-11-12T01:49:28.873Z,18.98
2022-11-12T01:55:50.047Z,18.52
2022-11-12T02:02:11.157Z,17.83
2022-11-12T02:08:33.659Z,17.98
2022-11-12T02:14:54.644Z,17.17
2022-11-12T02:21:19.983Z,17.33
2022-11-12T02:27:40.663Z,17.67
2022-11-12T02:34:01.619Z,17.70
2022-11-12T02:40:22.719Z,17.38
2022-11-12T02:46:43.537Z,19.30
2022-11-12T02:53:04.511Z,20.35
2022-11-12T02:59:25.432Z,18.35
2022-11-12T03:05:47.119Z,19.05
2022-11-12T03:12:08.083Z,17.75
2022-11-12T03:18:29.143Z,19.95
2022-11-12T03:24:50.372Z,19.20
2022-11-12T03:31:12.231Z,20.17
2022-11-12T03:37:33.042Z,21.65
2022-11-12T03:43:53.506Z,20.75
2022-11-12T03:50:15.621Z,21.00
2022-11-12T03:56:36.722Z,19.73
2022-11-12T04:02:58.246Z,21.33
2022-11-12T04:09:19.105Z,20.40
2022-11-12T04:15:40.134Z,20.60
2022-11-12T04:22:09.861Z,18.23
2022-11-12T04:28:30.480Z,20.38
2022-11-12T04:34:51.690Z,19.13
2022-11-12T04:41:31.026Z,16.70
2022-11-12T04:47:52.032Z,16.02
2022-11-12T04:54:12.886Z,16.05
2022-11-12T05:00:33.323Z,14.43
2022-11-12T05:06:56.032Z,15.35
2022-11-12T05:13:16.801Z,15.73
2022-11-12T05:19:37.716Z,14.20
2022-11-12T05:25:58.474Z,14.65
2022-11-12T05:32:19.438Z,15.10
2022-11-12T05:38:40.388Z,15.63
2022-11-12T05:45:01.332Z,14.55
2022-11-12T05:51:22.376Z,16.92
2022-11-12T05:57:43.205Z,16.67
2022-11-12T06:04:04.523Z,16.25
2022-11-12T06:10:25.443Z,14.98
2022-11-12T06:16:46.382Z,13.85
2022-11-12T06:23:07.325Z,16.85
2022-11-12T06:29:28.486Z,17.42
2022-11-12T06:36:03.359Z,17.23
2022-11-12T06:42:24.299Z,16.10
2022-11-12T06:48:45.465Z,15.10
2022-11-12T06:55:06.659Z,17.60
2022-11-12T07:01:27.640Z,17.00
2022-11-12T07:07:48.499Z,19.00
2022-11-12T07:14:09.497Z,17.70
2022-11-12T07:20:30.639Z,15.82
2022-11-12T07:26:51.073Z,15.43
2022-11-12T07:33:11.943Z,16.63
2022-11-12T07:39:32.700Z,14.15
2022-11-12T07:45:54.034Z,15.90
2022-11-12T07:52:14.916Z,15.68
2022-11-12T07:58:35.699Z,16.20
2022-11-12T08:04:56.489Z,14.15
2022-11-12T08:11:17.453Z,15.07
2022-11-12T08:17:40.982Z,17.58
2022-11-12T08:24:01.918Z,14.20
2022-11-12T08:30:22.739Z,16.33
2022-11-12T08:36:43.643Z,15.68
2022-11-12T08:43:09.761Z,16.60
2022-11-12T08:49:31.154Z,16.73
2022-11-12T08:55:56.535Z,15.40
2022-11-12T09:02:17.065Z,16.38
2022-11-12T09:08:38.321Z,14.88
2022-11-12T09:15:09.694Z,17.17
2022-11-12T09:21:39.586Z,17.23
2022-11-12T09:28:16.629Z,14.77
2022-11-12T09:34:37.321Z,15.43
2022-11-12T09:41:27.340Z,15.77
2022-11-12T09:47:58.037Z,15.43
2022-11-12T09:54:21.958Z,14.60
2022-11-12T10:00:49.716Z,13.43
2022-11-12T10:07:22.451Z,13.52
2022-11-12T10:14:15.345Z,15.52
2022-11-12T10:20:55.164Z,13.00
2022-11-12T10:27:19.808Z,13.60
2022-11-12T10:33:40.437Z,12.60
2022-11-12T10:40:21.153Z,13.10
2022-11-12T10:46:42.064Z,13.50
2022-11-12T10:53:06.082Z,12.43
2022-11-12T10:59:26.890Z,12.57
2022-11-12T11:05:52.645Z,20.52
2022-11-12T11:12:27.628Z,13.05
2022-11-12T11:19:02.593Z,12.48
2022-11-12T11:25:30.029Z,10.95
2022-11-12T11:32:11.494Z,20.80
2022-11-12T11:38:42.109Z,25.90
2022-11-12T11:45:24.706Z,19.92
2022-11-12T11:51:45.375Z,15.75
2022-11-12T11:58:24.423Z,8.40
2022-11-12T12:04:45.143Z,9.57
2022-11-12T12:11:14.347Z,11.23
2022-11-12T12:17:40.981Z,10.15
2022-11-12T12:24:03.833Z,6.97
2022-11-12T12:36:52.378Z,9.95
2022-11-12T12:43:23.130Z,8.88
2022-11-12T12:49:46.285Z,9.68
2022-11-12T12:56:23.878Z,9.25
2022-11-12T13:02:46.424Z,8.82
2022-11-12T13:09:24.784Z,7.57
2022-11-12T13:15:56.247Z,9.00
2022-11-12T13:22:20.118Z,10.35
2022-11-12T13:29:19.556Z,7.18
2022-11-12T13:35:40.941Z,9.10
2022-11-12T13:42:27.807Z,8.30
2022-11-12T13:48:59.819Z,8.05
2022-11-12T13:55:22.821Z,8.15
2022-11-12T14:01:44.458Z,7.63
2022-11-12T14:08:39.160Z,6.72
2022-11-12T14:21:26.924Z,6.88
2022-11-12T14:27:50.481Z,8.07
2022-11-12T14:34:22.344Z,7.13
2022-11-12T14:40:50.772Z,6.93
2022-11-12T14:47:11.789Z,7.60
2022-11-12T14:53:42.401Z,10.32
2022-11-12T15:00:22.185Z,10.57
2022-11-12T15:06:43.072Z,9.90
2022-11-12T15:13:15.056Z,10.07
2022-11-12T15:19:36.001Z,12.93
2022-11-12T15:26:00.926Z,14.95
2022-11-12T15:32:21.583Z,13.18
2022-11-12T15:38:48.925Z,13.25
2022-11-12T15:45:19.985Z,14.27
2022-11-12T15:51:40.376Z,16.05
2022-11-12T15:58:00.837Z,19.27
2022-11-12T16:04:21.640Z,36.05
2022-11-12T16:10:45.343Z,19.95
2022-11-12T16:17:09.946Z,18.50
2022-11-12T16:23:31.201Z,17.58
2022-11-12T16:29:52.209Z,20.83
2022-11-12T16:36:14.858Z,24.70
2022-11-12T16:42:36.059Z,24.90
2022-11-12T16:48:57.352Z,22.88
2022-11-12T16:55:17.969Z,23.23
2022-11-12T17:01:38.737Z,20.85
2022-11-12T17:07:59.834Z,21.50
2022-11-12T17:14:25.526Z,21.35
2022-11-12T17:20:51.374Z,21.95
2022-11-12T17:27:12.477Z,21.63
2022-11-12T17:33:37.732Z,22.33
2022-11-12T17:39:58.349Z,24.80
2022-11-12T17:46:19.147Z,23.15
2022-11-12T17:52:39.954Z,25.25
2022-11-12T17:59:02.375Z,42.40
2022-11-12T18:05:23.415Z,51.38
2022-11-12T18:11:54.490Z,52.97
2022-11-12T18:18:15.289Z,46.05
2022-11-12T18:24:36.456Z,47.42
2022-11-12T18:31:04.754Z,52.95
2022-11-12T18:37:25.686Z,48.90
2022-11-12T18:43:46.399Z,48.80
2022-11-12T18:50:08.975Z,53.03
2022-11-12T18:56:29.756Z,45.70
2022-11-12T19:02:51.057Z,42.28
2022-11-12T19:09:12.117Z,44.67
2022-11-12T19:15:34.454Z,44.83
2022-11-12T19:21:55.438Z,49.42
2022-11-12T19:28:16.437Z,50.50
2022-11-12T19:34:37.424Z,50.13
2022-11-12T19:41:17.759Z,45.53
2022-11-12T19:47:40.832Z,49.00
2022-11-12T19:54:02.296Z,47.33
2022-11-12T20:00:23.323Z,42.13
2022-11-12T20:06:44.148Z,43.58
2022-11-12T20:13:05.078Z,44.30
2022-11-12T20:19:26.999Z,45.95
2022-11-12T20:25:48.124Z,45.47
2022-11-12T20:32:08.939Z,43.85
2022-11-12T20:38:30.053Z,41.45
2022-11-12T20:44:51.329Z,46.20
2022-11-12T20:51:24.196Z,42.35
2022-11-12T20:57:45.654Z,41.13
2022-11-12T21:04:06.275Z,45.50
2022-11-12T21:10:27.333Z,47.30
2022-11-12T21:16:47.918Z,50.10
2022-11-12T21:23:09.156Z,44.63
2022-11-12T21:29:29.966Z,44.30
2022-11-12T21:35:54.120Z,43.80
2022-11-12T21:42:15.078Z,47.63
2022-11-12T21:48:36.015Z,46.08
2022-11-12T21:54:57.137Z,41.50
2022-11-12T22:01:23.441Z,45.22
2022-11-12T22:07:44.347Z,47.17
2022-11-12T22:14:05.340Z,46.55
2022-11-12T22:20:26.415Z,48.47
2022-11-12T22:26:47.455Z,47.67
2022-11-12T22:33:08.000Z,46.83
2022-11-12T22:39:28.925Z,49.97
2022-11-12T22:45:49.749Z,45.72
2022-11-12T22:52:10.498Z,48.05
2022-11-12T22:58:34.761Z,48.88
2022-11-12T23:04:55.600Z,48.60
2022-11-12T23:11:19.465Z,47.88
2022-11-12T23:17:40.168Z,43.95
2022-11-12T23:24:00.794Z,42.80
2022-11-12T23:30:26.350Z,45.15
2022-11-12T23:36:47.214Z,40.90
2022-11-12T23:43:08.104Z,42.88
2022-11-12T23:49:28.861Z,43.33
2022-11-12T23:55:49.810Z,39.92
